sensor_id;sensor_type;location;lat;lon;timestamp;pressure;altitude;pressure_sealevel;temperature;humidity
60974;BME280;46846;51.528;5.076;2022-07-06T00:00:52;102038.88;;;20.47;38.20
60974;BME280;46846;51.528;5.076;2022-07-06T00:03:17;102044.44;;;20.44;38.06
60974;BME280;46846;51.528;5.076;2022-07-06T00:05:43;102052.72;;;20.41;38.18
60974;BME280;46846;51.528;5.076;2022-07-06T00:08:08;102046.34;;;20.42;38.22
60974;BME280;46846;51.528;5.076;2022-07-06T00:10:33;102051.91;;;20.39;38.20
60974;BME280;46846;51.528;5.076;2022-07-06T00:12:59;102049.59;;;20.33;38.26
60974;BME280;46846;51.528;5.076;2022-07-06T00:15:24;102057.69;;;20.33;38.33
60974;BME280;46846;51.528;5.076;2022-07-06T00:17:49;102050.91;;;20.26;38.36
60974;BME280;46846;51.528;5.076;2022-07-06T00:20:15;102052.72;;;20.25;38.44
60974;BME280;46846;51.528;5.076;2022-07-06T00:22:40;102046.59;;;20.21;38.67
60974;BME280;46846;51.528;5.076;2022-07-06T00:25:06;102052.09;;;20.20;38.40
60974;BME280;46846;51.528;5.076;2022-07-06T00:27:31;102053.94;;;20.19;38.46
60974;BME280;46846;51.528;5.076;2022-07-06T00:29:57;102055.75;;;20.19;38.43
60974;BME280;46846;51.528;5.076;2022-07-06T00:32:22;102042.59;;;20.13;38.29
60974;BME280;46846;51.528;5.076;2022-07-06T00:34:47;102047.22;;;20.11;38.32
60974;BME280;46846;51.528;5.076;2022-07-06T00:37:13;102049.13;;;20.08;38.48
60974;BME280;46846;51.528;5.076;2022-07-06T00:39:40;102052.78;;;20.07;38.49
60974;BME280;46846;51.528;5.076;2022-07-06T00:42:06;102050.25;;;20.04;38.46
60974;BME280;46846;51.528;5.076;2022-07-06T00:44:31;102050.44;;;20.01;38.47
60974;BME280;46846;51.528;5.076;2022-07-06T00:46:58;102048.75;;;19.99;38.60
60974;BME280;46846;51.528;5.076;2022-07-06T00:49:24;102051.69;;;19.94;38.54
60974;BME280;46846;51.528;5.076;2022-07-06T00:52:08;102046.44;;;19.91;38.63
60974;BME280;46846;51.528;5.076;2022-07-06T00:54:34;102048.38;;;19.89;38.63
60974;BME280;46846;51.528;5.076;2022-07-06T00:57:01;102043.13;;;19.86;38.55
60974;BME280;46846;51.528;5.076;2022-07-06T00:59:27;102042.38;;;19.84;38.68
60974;BME280;46846;51.528;5.076;2022-07-06T01:01:53;102044.19;;;19.83;38.71
60974;BME280;46846;51.528;5.076;2022-07-06T01:04:19;102040.69;;;19.81;38.57
60974;BME280;46846;51.528;5.076;2022-07-06T01:06:47;102048.00;;;19.79;38.62
60974;BME280;46846;51.528;5.076;2022-07-06T01:09:13;102047.47;;;19.72;38.71
60974;BME280;46846;51.528;5.076;2022-07-06T01:11:39;102043.97;;;19.70;38.89
60974;BME280;46846;51.528;5.076;2022-07-06T01:14:04;102044.13;;;19.67;38.80
60974;BME280;46846;51.528;5.076;2022-07-06T01:16:30;102039.75;;;19.64;38.81
60974;BME280;46846;51.528;5.076;2022-07-06T01:18:56;102040.97;;;19.59;38.91
60974;BME280;46846;51.528;5.076;2022-07-06T01:21:22;102037.63;;;19.53;39.04
60974;BME280;46846;51.528;5.076;2022-07-06T01:23:47;102039.56;;;19.51;39.00
60974;BME280;46846;51.528;5.076;2022-07-06T01:26:18;102040.69;;;19.47;39.25
60974;BME280;46846;51.528;5.076;2022-07-06T01:28:45;102040.75;;;19.46;39.06
60974;BME280;46846;51.528;5.076;2022-07-06T01:31:15;102040.75;;;19.46;39.07
60974;BME280;46846;51.528;5.076;2022-07-06T01:33:43;102045.44;;;19.42;39.20
60974;BME280;46846;51.528;5.076;2022-07-06T01:36:09;102045.75;;;19.36;39.25
60974;BME280;46846;51.528;5.076;2022-07-06T01:39:03;102046.72;;;19.35;39.32
60974;BME280;46846;51.528;5.076;2022-07-06T01:41:29;102043.38;;;19.30;39.34
60974;BME280;46846;51.528;5.076;2022-07-06T01:43:54;102041.00;;;19.23;39.39
60974;BME280;46846;51.528;5.076;2022-07-06T01:46:19;102046.75;;;19.17;39.49
60974;BME280;46846;51.528;5.076;2022-07-06T01:48:45;102048.63;;;19.15;39.50
60974;BME280;46846;51.528;5.076;2022-07-06T01:51:10;102046.09;;;19.12;39.61
60974;BME280;46846;51.528;5.076;2022-07-06T01:53:37;102044.59;;;19.06;39.65
60974;BME280;46846;51.528;5.076;2022-07-06T01:56:03;102041.19;;;19.03;39.65
60974;BME280;46846;51.528;5.076;2022-07-06T01:58:28;102035.09;;;18.97;39.64
60974;BME280;46846;51.528;5.076;2022-07-06T02:00:54;102038.75;;;18.96;39.49
60974;BME280;46846;51.528;5.076;2022-07-06T02:03:19;102038.03;;;18.93;39.71
60974;BME280;46846;51.528;5.076;2022-07-06T02:05:45;102039.84;;;18.92;39.93
60974;BME280;46846;51.528;5.076;2022-07-06T02:08:10;102036.44;;;18.89;39.68
60974;BME280;46846;51.528;5.076;2022-07-06T02:10:35;102039.31;;;18.85;39.59
60974;BME280;46846;51.528;5.076;2022-07-06T02:13:01;102049.31;;;18.83;39.98
60974;BME280;46846;51.528;5.076;2022-07-06T02:15:26;102044.84;;;18.82;39.88
60974;BME280;46846;51.528;5.076;2022-07-06T02:17:51;102044.94;;;18.81;40.03
60974;BME280;46846;51.528;5.076;2022-07-06T02:20:17;102050.31;;;18.81;39.71
60974;BME280;46846;51.528;5.076;2022-07-06T02:22:42;102043.31;;;18.77;39.71
60974;BME280;46846;51.528;5.076;2022-07-06T02:25:08;102049.59;;;18.77;39.81
60974;BME280;46846;51.528;5.076;2022-07-06T02:27:33;102048.00;;;18.73;39.84
60974;BME280;46846;51.528;5.076;2022-07-06T02:29:58;102041.75;;;18.72;39.64
60974;BME280;46846;51.528;5.076;2022-07-06T02:32:24;102038.22;;;18.70;39.71
60974;BME280;46846;51.528;5.076;2022-07-06T02:34:50;102040.16;;;18.68;39.47
60974;BME280;46846;51.528;5.076;2022-07-06T02:37:15;102025.09;;;18.64;39.60
60974;BME280;46846;51.528;5.076;2022-07-06T02:39:40;102029.59;;;18.64;39.77
60974;BME280;46846;51.528;5.076;2022-07-06T02:42:06;102027.13;;;18.59;39.76
60974;BME280;46846;51.528;5.076;2022-07-06T02:44:31;102026.25;;;18.58;39.73
60974;BME280;46846;51.528;5.076;2022-07-06T02:46:57;102037.97;;;18.57;39.90
60974;BME280;46846;51.528;5.076;2022-07-06T02:49:22;102038.16;;;18.54;39.72
60974;BME280;46846;51.528;5.076;2022-07-06T02:51:47;102048.94;;;18.54;39.99
60974;BME280;46846;51.528;5.076;2022-07-06T02:54:13;102044.69;;;18.49;39.87
60974;BME280;46846;51.528;5.076;2022-07-06T02:56:38;102045.81;;;18.44;40.00
60974;BME280;46846;51.528;5.076;2022-07-06T02:59:03;102055.69;;;18.44;40.06
60974;BME280;46846;51.528;5.076;2022-07-06T03:01:29;102043.25;;;18.41;39.96
60974;BME280;46846;51.528;5.076;2022-07-06T03:03:54;102040.56;;;18.41;39.85
60974;BME280;46846;51.528;5.076;2022-07-06T03:06:19;102044.19;;;18.40;40.21
60974;BME280;46846;51.528;5.076;2022-07-06T03:08:45;102049.69;;;18.39;40.11
60974;BME280;46846;51.528;5.076;2022-07-06T03:11:10;102047.03;;;18.37;39.94
60974;BME280;46846;51.528;5.076;2022-07-06T03:13:36;102040.88;;;18.35;40.09
60974;BME280;46846;51.528;5.076;2022-07-06T03:16:01;102040.94;;;18.34;40.04
60974;BME280;46846;51.528;5.076;2022-07-06T03:18:26;102049.06;;;18.32;40.19
60974;BME280;46846;51.528;5.076;2022-07-06T03:20:52;102051.94;;;18.29;39.84
60974;BME280;46846;51.528;5.076;2022-07-06T03:23:18;102050.25;;;18.26;39.94
60974;BME280;46846;51.528;5.076;2022-07-06T03:25:43;102044.88;;;18.26;39.97
60974;BME280;46846;51.528;5.076;2022-07-06T03:28:09;102058.56;;;18.22;39.81
60974;BME280;46846;51.528;5.076;2022-07-06T03:30:34;102048.63;;;18.22;40.25
60974;BME280;46846;51.528;5.076;2022-07-06T03:32:59;102052.38;;;18.20;40.24
60974;BME280;46846;51.528;5.076;2022-07-06T03:35:25;102046.16;;;18.17;40.29
60974;BME280;46846;51.528;5.076;2022-07-06T03:37:50;102053.28;;;18.18;40.25
60974;BME280;46846;51.528;5.076;2022-07-06T03:40:16;102046.25;;;18.16;40.30
60974;BME280;46846;51.528;5.076;2022-07-06T03:42:41;102054.47;;;18.13;40.04
60974;BME280;46846;51.528;5.076;2022-07-06T03:45:07;102049.25;;;18.10;40.13
60974;BME280;46846;51.528;5.076;2022-07-06T03:47:32;102046.59;;;18.08;40.14
60974;BME280;46846;51.528;5.076;2022-07-06T03:49:58;102049.38;;;18.07;40.31
60974;BME280;46846;51.528;5.076;2022-07-06T03:52:24;102048.59;;;18.03;40.40
60974;BME280;46846;51.528;5.076;2022-07-06T03:54:49;102048.56;;;18.04;40.15
60974;BME280;46846;51.528;5.076;2022-07-06T03:57:15;102051.38;;;18.01;40.14
60974;BME280;46846;51.528;5.076;2022-07-06T03:59:40;102045.13;;;18.01;40.20
60974;BME280;46846;51.528;5.076;2022-07-06T04:02:06;102046.22;;;17.97;40.07
60974;BME280;46846;51.528;5.076;2022-07-06T04:04:32;102047.13;;;17.96;40.30
60974;BME280;46846;51.528;5.076;2022-07-06T04:06:58;102041.91;;;17.93;40.09
60974;BME280;46846;51.528;5.076;2022-07-06T04:09:23;102043.66;;;17.94;40.31
60974;BME280;46846;51.528;5.076;2022-07-06T04:11:49;102040.09;;;17.93;40.45
60974;BME280;46846;51.528;5.076;2022-07-06T04:14:14;102036.69;;;17.89;40.27
60974;BME280;46846;51.528;5.076;2022-07-06T04:16:39;102035.78;;;17.89;40.50
60974;BME280;46846;51.528;5.076;2022-07-06T04:19:05;102034.78;;;17.92;39.92
60974;BME280;46846;51.528;5.076;2022-07-06T04:21:30;102031.41;;;17.86;40.39
60974;BME280;46846;51.528;5.076;2022-07-06T04:23:55;102029.69;;;17.85;40.25
60974;BME280;46846;51.528;5.076;2022-07-06T04:26:21;102028.88;;;17.83;40.35
60974;BME280;46846;51.528;5.076;2022-07-06T04:28:46;102027.19;;;17.81;40.46
60974;BME280;46846;51.528;5.076;2022-07-06T04:31:12;102030.75;;;17.81;40.27
60974;BME280;46846;51.528;5.076;2022-07-06T04:33:40;102030.75;;;17.81;40.21
60974;BME280;46846;51.528;5.076;2022-07-06T04:36:07;102034.31;;;17.82;40.45
60974;BME280;46846;51.528;5.076;2022-07-06T04:38:32;102027.19;;;17.81;40.38
60974;BME280;46846;51.528;5.076;2022-07-06T04:40:57;102034.47;;;17.79;40.40
60974;BME280;46846;51.528;5.076;2022-07-06T04:43:23;102036.13;;;17.81;39.81
60974;BME280;46846;51.528;5.076;2022-07-06T04:45:48;102029.94;;;17.79;40.42
60974;BME280;46846;51.528;5.076;2022-07-06T04:48:13;102029.09;;;17.79;40.40
60974;BME280;46846;51.528;5.076;2022-07-06T04:50:39;102037.97;;;17.81;40.33
60974;BME280;46846;51.528;5.076;2022-07-06T04:53:04;102038.97;;;17.78;40.40
60974;BME280;46846;51.528;5.076;2022-07-06T04:55:29;102038.09;;;17.77;40.47
60974;BME280;46846;51.528;5.076;2022-07-06T04:57:55;102034.38;;;17.80;40.36
60974;BME280;46846;51.528;5.076;2022-07-06T05:00:20;102036.22;;;17.80;40.31
60974;BME280;46846;51.528;5.076;2022-07-06T05:02:46;102041.47;;;17.83;40.30
60974;BME280;46846;51.528;5.076;2022-07-06T05:05:11;102041.50;;;17.81;40.13
60974;BME280;46846;51.528;5.076;2022-07-06T05:07:37;102037.81;;;17.84;40.17
60974;BME280;46846;51.528;5.076;2022-07-06T05:10:06;102041.47;;;17.83;40.24
60974;BME280;46846;51.528;5.076;2022-07-06T05:12:32;102046.91;;;17.81;39.97
60974;BME280;46846;51.528;5.076;2022-07-06T05:14:58;102048.75;;;17.81;40.13
60974;BME280;46846;51.528;5.076;2022-07-06T05:17:24;102055.13;;;17.78;40.02
60974;BME280;46846;51.528;5.076;2022-07-06T05:19:49;102050.25;;;17.86;40.50
60974;BME280;46846;51.528;5.076;2022-07-06T05:22:14;102052.97;;;17.86;40.40
60974;BME280;46846;51.528;5.076;2022-07-06T05:24:40;102052.91;;;17.88;40.17
60974;BME280;46846;51.528;5.076;2022-07-06T05:27:05;102053.03;;;17.85;40.48
60974;BME280;46846;51.528;5.076;2022-07-06T05:29:30;102050.19;;;17.88;40.61
60974;BME280;46846;51.528;5.076;2022-07-06T05:31:56;102055.38;;;17.93;40.31
60974;BME280;46846;51.528;5.076;2022-07-06T05:34:21;102055.59;;;17.88;40.55
60974;BME280;46846;51.528;5.076;2022-07-06T05:36:46;102055.38;;;17.93;40.40
60974;BME280;46846;51.528;5.076;2022-07-06T05:39:12;102059.75;;;17.95;40.35
60974;BME280;46846;51.528;5.076;2022-07-06T05:41:37;102054.38;;;17.95;40.18
60974;BME280;46846;51.528;5.076;2022-07-06T05:44:03;102058.66;;;17.99;40.24
60974;BME280;46846;51.528;5.076;2022-07-06T05:46:28;102059.69;;;17.97;40.35
60974;BME280;46846;51.528;5.076;2022-07-06T05:48:54;102062.03;;;18.04;40.19
60974;BME280;46846;51.528;5.076;2022-07-06T05:51:38;102057.31;;;18.10;40.04
60974;BME280;46846;51.528;5.076;2022-07-06T05:54:03;102059.78;;;18.14;39.79
60974;BME280;46846;51.528;5.076;2022-07-06T05:56:28;102063.22;;;18.18;39.77
60974;BME280;46846;51.528;5.076;2022-07-06T05:58:54;102059.34;;;18.24;39.88
60974;BME280;46846;51.528;5.076;2022-07-06T06:01:19;102063.00;;;18.23;40.01
60974;BME280;46846;51.528;5.076;2022-07-06T06:03:44;102062.94;;;18.24;40.01
60974;BME280;46846;51.528;5.076;2022-07-06T06:06:10;102065.69;;;18.23;39.89
60974;BME280;46846;51.528;5.076;2022-07-06T06:08:35;102063.88;;;18.23;39.87
60974;BME280;46846;51.528;5.076;2022-07-06T06:11:00;102064.69;;;18.25;40.10
60974;BME280;46846;51.528;5.076;2022-07-06T06:13:26;102061.03;;;18.26;41.08
60974;BME280;46846;51.528;5.076;2022-07-06T06:15:51;102063.78;;;18.25;40.28
60974;BME280;46846;51.528;5.076;2022-07-06T06:18:16;102059.78;;;18.34;41.28
60974;BME280;46846;51.528;5.076;2022-07-06T06:20:44;102067.72;;;18.37;40.93
60974;BME280;46846;51.528;5.076;2022-07-06T06:23:10;102064.88;;;18.40;40.08
60974;BME280;46846;51.528;5.076;2022-07-06T06:25:39;102067.72;;;18.37;40.50
60974;BME280;46846;51.528;5.076;2022-07-06T06:28:07;102071.22;;;18.39;40.52
60974;BME280;46846;51.528;5.076;2022-07-06T06:30:32;102065.84;;;18.39;40.24
60974;BME280;46846;51.528;5.076;2022-07-06T06:35:33;102075.16;;;18.51;41.46
60974;BME280;46846;51.528;5.076;2022-07-06T06:41:21;102074.19;;;18.52;40.30
60974;BME280;46846;51.528;5.076;2022-07-06T06:43:46;102075.00;;;18.54;40.58
60974;BME280;46846;51.528;5.076;2022-07-06T06:46:11;102073.03;;;18.57;40.33
60974;BME280;46846;51.528;5.076;2022-07-06T06:48:37;102075.59;;;18.61;40.49
60974;BME280;46846;51.528;5.076;2022-07-06T06:51:04;102080.59;;;18.68;40.27
60974;BME280;46846;51.528;5.076;2022-07-06T06:53:29;102072.72;;;18.64;40.74
60974;BME280;46846;51.528;5.076;2022-07-06T06:55:55;102071.19;;;18.77;40.54
60974;BME280;46846;51.528;5.076;2022-07-06T06:58:20;102083.41;;;18.84;40.61
60974;BME280;46846;51.528;5.076;2022-07-06T07:00:46;102078.97;;;18.83;40.69
60974;BME280;46846;51.528;5.076;2022-07-06T07:03:12;102081.19;;;18.93;40.81
60974;BME280;46846;51.528;5.076;2022-07-06T07:05:38;102081.34;;;18.90;41.25
60974;BME280;46846;51.528;5.076;2022-07-06T07:08:03;102078.44;;;18.94;40.71
60974;BME280;46846;51.528;5.076;2022-07-06T07:10:29;102082.25;;;19.08;40.95
60974;BME280;46846;51.528;5.076;2022-07-06T07:12:54;102077.81;;;19.07;40.94
60974;BME280;46846;51.528;5.076;2022-07-06T07:15:20;102076.72;;;19.11;40.80
60974;BME280;46846;51.528;5.076;2022-07-06T07:17:45;102079.25;;;19.14;40.92
60974;BME280;46846;51.528;5.076;2022-07-06T07:20:11;102081.66;;;19.20;40.90
60974;BME280;46846;51.528;5.076;2022-07-06T07:22:36;102076.00;;;19.25;40.96
60974;BME280;46846;51.528;5.076;2022-07-06T07:25:02;102076.16;;;19.39;40.72
60974;BME280;46846;51.528;5.076;2022-07-06T07:27:28;102079.56;;;19.43;40.86
60974;BME280;46846;51.528;5.076;2022-07-06T07:29:53;102067.81;;;19.44;40.92
60974;BME280;46846;51.528;5.076;2022-07-06T07:32:19;102079.19;;;19.51;40.98
60974;BME280;46846;51.528;5.076;2022-07-06T07:34:45;102088.31;;;19.48;41.04
60974;BME280;46846;51.528;5.076;2022-07-06T07:37:10;102082.34;;;19.59;40.91
60974;BME280;46846;51.528;5.076;2022-07-06T07:39:36;102084.47;;;19.70;40.90
60974;BME280;46846;51.528;5.076;2022-07-06T07:42:01;102085.78;;;19.79;40.63
60974;BME280;46846;51.528;5.076;2022-07-06T07:44:27;102083.81;;;19.83;40.79
60974;BME280;46846;51.528;5.076;2022-07-06T07:46:53;102075.81;;;19.81;39.71
60974;BME280;46846;51.528;5.076;2022-07-06T07:49:19;102085.66;;;19.82;41.04
60974;BME280;46846;51.528;5.076;2022-07-06T07:51:46;102071.56;;;19.93;41.09
60974;BME280;46846;51.528;5.076;2022-07-06T07:54:12;102079.38;;;19.99;40.72
60974;BME280;46846;51.528;5.076;2022-07-06T07:56:37;102085.28;;;20.06;41.04
60974;BME280;46846;51.528;5.076;2022-07-06T07:59:05;102077.00;;;20.09;41.12
60974;BME280;46846;51.528;5.076;2022-07-06T08:01:32;102084.88;;;20.14;40.88
60974;BME280;46846;51.528;5.076;2022-07-06T08:03:58;102076.34;;;20.21;41.06
60974;BME280;46846;51.528;5.076;2022-07-06T08:06:23;102076.97;;;20.27;41.18
60974;BME280;46846;51.528;5.076;2022-07-06T08:08:48;102082.19;;;20.30;41.03
60974;BME280;46846;51.528;5.076;2022-07-06T08:11:14;102070.25;;;20.34;40.85
60974;BME280;46846;51.528;5.076;2022-07-06T08:13:39;102070.69;;;20.42;40.76
60974;BME280;46846;51.528;5.076;2022-07-06T08:16:04;102076.00;;;20.44;40.97
60974;BME280;46846;51.528;5.076;2022-07-06T08:18:30;102073.75;;;20.52;41.06
60974;BME280;46846;51.528;5.076;2022-07-06T08:20:55;102068.66;;;20.62;39.72
60974;BME280;46846;51.528;5.076;2022-07-06T08:23:22;102071.00;;;20.68;40.74
60974;BME280;46846;51.528;5.076;2022-07-06T08:25:48;102083.25;;;20.59;41.26
60974;BME280;46846;51.528;5.076;2022-07-06T08:28:13;102070.56;;;20.76;41.18
60974;BME280;46846;51.528;5.076;2022-07-06T08:30:39;102069.91;;;20.88;40.37
60974;BME280;46846;51.528;5.076;2022-07-06T08:33:04;102065.84;;;20.96;40.80
60974;BME280;46846;51.528;5.076;2022-07-06T08:35:29;102066.22;;;20.89;40.92
60974;BME280;46846;51.528;5.076;2022-07-06T08:37:56;102066.44;;;21.01;40.64
60974;BME280;46846;51.528;5.076;2022-07-06T08:40:22;102067.91;;;21.07;40.80
60974;BME280;46846;51.528;5.076;2022-07-06T08:42:52;102067.66;;;21.11;40.68
60974;BME280;46846;51.528;5.076;2022-07-06T08:45:19;102051.03;;;21.17;39.92
60974;BME280;46846;51.528;5.076;2022-07-06T08:47:46;102048.84;;;21.24;40.51
60974;BME280;46846;51.528;5.076;2022-07-06T08:50:14;102053.97;;;21.29;40.63
60974;BME280;46846;51.528;5.076;2022-07-06T08:52:40;102045.84;;;21.29;40.64
60974;BME280;46846;51.528;5.076;2022-07-06T08:55:05;102044.78;;;21.31;40.67
60974;BME280;46846;51.528;5.076;2022-07-06T08:57:33;102045.19;;;21.40;40.71
60974;BME280;46846;51.528;5.076;2022-07-06T08:59:59;102051.28;;;21.43;40.41
60974;BME280;46846;51.528;5.076;2022-07-06T09:02:25;102044.63;;;21.49;40.31
60974;BME280;46846;51.528;5.076;2022-07-06T09:04:54;102039.41;;;21.61;40.43
60974;BME280;46846;51.528;5.076;2022-07-06T09:07:21;102042.13;;;21.61;40.21
60974;BME280;46846;51.528;5.076;2022-07-06T09:09:48;102043.03;;;21.76;39.93
60974;BME280;46846;51.528;5.076;2022-07-06T09:12:14;102040.41;;;21.74;39.07
60974;BME280;46846;51.528;5.076;2022-07-06T09:14:40;102048.81;;;21.84;40.09
60974;BME280;46846;51.528;5.076;2022-07-06T09:17:06;102042.44;;;21.85;40.04
60974;BME280;46846;51.528;5.076;2022-07-06T09:19:33;102044.19;;;21.86;39.85
60974;BME280;46846;51.528;5.076;2022-07-06T09:22:00;102043.41;;;21.98;38.99
60974;BME280;46846;51.528;5.076;2022-07-06T09:24:25;102050.97;;;21.93;39.38
60974;BME280;46846;51.528;5.076;2022-07-06T09:26:55;102054.53;;;22.08;38.36
60974;BME280;46846;51.528;5.076;2022-07-06T09:29:28;102048.03;;;22.11;39.64
60974;BME280;46846;51.528;5.076;2022-07-06T09:31:58;102058.28;;;22.06;39.59
60974;BME280;46846;51.528;5.076;2022-07-06T09:34:24;102058.28;;;22.20;39.36
60974;BME280;46846;51.528;5.076;2022-07-06T09:36:50;102056.16;;;22.25;39.47
60974;BME280;46846;51.528;5.076;2022-07-06T09:39:25;102052.00;;;22.20;39.06
60974;BME280;46846;51.528;5.076;2022-07-06T09:42:02;102059.00;;;22.37;39.21
60974;BME280;46846;51.528;5.076;2022-07-06T09:44:41;102055.13;;;22.41;39.10
60974;BME280;46846;51.528;5.076;2022-07-06T09:47:09;102065.78;;;22.44;38.97
60974;BME280;46846;51.528;5.076;2022-07-06T09:49:36;102057.28;;;22.36;39.17
60974;BME280;46846;51.528;5.076;2022-07-06T09:52:04;102058.44;;;22.46;39.09
60974;BME280;46846;51.528;5.076;2022-07-06T09:54:30;102059.28;;;22.47;38.78
60974;BME280;46846;51.528;5.076;2022-07-06T09:56:56;102058.22;;;22.49;38.71
60974;BME280;46846;51.528;5.076;2022-07-06T09:59:24;102057.44;;;22.47;38.99
60974;BME280;46846;51.528;5.076;2022-07-06T10:01:59;102067.81;;;22.55;38.55
60974;BME280;46846;51.528;5.076;2022-07-06T10:04:27;102065.22;;;22.53;38.93
60974;BME280;46846;51.528;5.076;2022-07-06T10:06:55;102069.53;;;22.56;38.78
60974;BME280;46846;51.528;5.076;2022-07-06T10:09:22;102061.31;;;22.58;38.87
60974;BME280;46846;51.528;5.076;2022-07-06T10:11:54;102071.41;;;22.56;38.82
60974;BME280;46846;51.528;5.076;2022-07-06T10:14:22;102066.34;;;22.64;38.48
60974;BME280;46846;51.528;5.076;2022-07-06T10:16:48;102060.59;;;22.69;37.89
60974;BME280;46846;51.528;5.076;2022-07-06T10:19:15;102072.53;;;22.66;38.36
60974;BME280;46846;51.528;5.076;2022-07-06T10:21:41;102073.50;;;22.65;38.31
60974;BME280;46846;51.528;5.076;2022-07-06T10:24:07;102071.53;;;22.67;38.16
60974;BME280;46846;51.528;5.076;2022-07-06T10:26:35;102062.28;;;22.84;36.45
60974;BME280;46846;51.528;5.076;2022-07-06T10:29:02;102068.38;;;22.88;37.81
60974;BME280;46846;51.528;5.076;2022-07-06T10:31:29;102066.00;;;22.96;37.60
60974;BME280;46846;51.528;5.076;2022-07-06T10:33:56;102062.97;;;23.01;37.38
60974;BME280;46846;51.528;5.076;2022-07-06T10:36:22;102069.69;;;22.95;37.35
60974;BME280;46846;51.528;5.076;2022-07-06T10:38:49;102065.91;;;22.98;37.52
60974;BME280;46846;51.528;5.076;2022-07-06T10:41:15;102068.19;;;22.91;38.14
60974;BME280;46846;51.528;5.076;2022-07-06T10:43:45;102060.72;;;23.07;37.42
60974;BME280;46846;51.528;5.076;2022-07-06T10:46:13;102057.59;;;23.14;37.23
60974;BME280;46846;51.528;5.076;2022-07-06T10:48:41;102052.59;;;23.20;37.14
60974;BME280;46846;51.528;5.076;2022-07-06T10:51:07;102051.72;;;23.20;36.80
60974;BME280;46846;51.528;5.076;2022-07-06T10:53:35;102051.84;;;23.18;37.30
60974;BME280;46846;51.528;5.076;2022-07-06T10:56:11;102043.81;;;23.17;37.37
60974;BME280;46846;51.528;5.076;2022-07-06T11:01:10;102046.75;;;23.14;37.27
60974;BME280;46846;51.528;5.076;2022-07-06T11:03:41;102042.81;;;23.18;37.33
60974;BME280;46846;51.528;5.076;2022-07-06T11:06:10;102045.84;;;23.13;37.30
60974;BME280;46846;51.528;5.076;2022-07-06T11:11:55;102053.03;;;23.27;37.10
60974;BME280;46846;51.528;5.076;2022-07-06T11:14:07;102050.53;;;23.24;37.11
60974;BME280;46846;51.528;5.076;2022-07-06T11:16:33;102042.44;;;23.37;36.97
60974;BME280;46846;51.528;5.076;2022-07-06T11:21:33;102043.84;;;23.43;36.81
60974;BME280;46846;51.528;5.076;2022-07-06T11:24:00;102047.44;;;23.56;36.69
60974;BME280;46846;51.528;5.076;2022-07-06T11:26:27;102041.34;;;23.53;36.42
60974;BME280;46846;51.528;5.076;2022-07-06T11:28:53;102041.03;;;23.57;36.38
60974;BME280;46846;51.528;5.076;2022-07-06T11:31:18;102037.03;;;23.63;36.87
60974;BME280;46846;51.528;5.076;2022-07-06T11:33:47;102032.41;;;23.76;36.41
60974;BME280;46846;51.528;5.076;2022-07-06T11:36:18;102029.59;;;23.78;36.49
60974;BME280;46846;51.528;5.076;2022-07-06T11:38:44;102032.63;;;23.86;35.38
60974;BME280;46846;51.528;5.076;2022-07-06T11:41:11;102029.25;;;23.83;36.40
60974;BME280;46846;51.528;5.076;2022-07-06T11:43:39;102023.50;;;23.87;35.99
60974;BME280;46846;51.528;5.076;2022-07-06T11:46:21;102022.00;;;23.83;36.17
60974;BME280;46846;51.528;5.076;2022-07-06T11:48:48;102020.25;;;23.82;36.05
60974;BME280;46846;51.528;5.076;2022-07-06T11:51:14;102015.03;;;23.92;35.75
60974;BME280;46846;51.528;5.076;2022-07-06T11:53:49;102013.06;;;23.94;36.60
60974;BME280;46846;51.528;5.076;2022-07-06T11:56:15;102010.34;;;23.94;36.39
60974;BME280;46846;51.528;5.076;2022-07-06T11:58:42;102009.34;;;23.95;36.66
60974;BME280;46846;51.528;5.076;2022-07-06T12:01:10;101998.47;;;24.08;36.32
60974;BME280;46846;51.528;5.076;2022-07-06T12:03:36;101992.59;;;24.14;35.38
60974;BME280;46846;51.528;5.076;2022-07-06T12:06:04;101992.34;;;24.17;35.92
60974;BME280;46846;51.528;5.076;2022-07-06T12:08:30;101985.31;;;24.15;36.38
60974;BME280;46846;51.528;5.076;2022-07-06T12:10:56;101978.09;;;24.14;36.55
60974;BME280;46846;51.528;5.076;2022-07-06T12:13:22;101980.31;;;24.09;35.92
60974;BME280;46846;51.528;5.076;2022-07-06T12:15:49;101994.41;;;24.14;35.59
60974;BME280;46846;51.528;5.076;2022-07-06T12:18:14;101979.53;;;24.20;35.99
60974;BME280;46846;51.528;5.076;2022-07-06T12:20:40;101977.44;;;24.23;35.82
60974;BME280;46846;51.528;5.076;2022-07-06T12:23:06;101981.00;;;24.24;35.83
60974;BME280;46846;51.528;5.076;2022-07-06T12:25:34;101981.78;;;24.26;35.62
60974;BME280;46846;51.528;5.076;2022-07-06T12:27:59;101984.16;;;24.30;35.45
60974;BME280;46846;51.528;5.076;2022-07-06T12:30:25;101982.91;;;24.35;35.42
60974;BME280;46846;51.528;5.076;2022-07-06T12:33:13;101983.81;;;24.35;35.10
60974;BME280;46846;51.528;5.076;2022-07-06T12:35:39;101981.84;;;24.37;35.38
60974;BME280;46846;51.528;5.076;2022-07-06T12:38:05;101979.84;;;24.39;35.32
60974;BME280;46846;51.528;5.076;2022-07-06T12:40:31;101971.50;;;24.54;35.17
60974;BME280;46846;51.528;5.076;2022-07-06T12:42:57;101975.47;;;24.50;35.56
60974;BME280;46846;51.528;5.076;2022-07-06T12:45:29;101977.94;;;24.53;34.90
60974;BME280;46846;51.528;5.076;2022-07-06T12:47:58;101977.41;;;24.48;35.42
60974;BME280;46846;51.528;5.076;2022-07-06T12:50:37;101977.59;;;24.57;34.80
60974;BME280;46846;51.528;5.076;2022-07-06T12:53:04;101978.47;;;24.58;35.12
60974;BME280;46846;51.528;5.076;2022-07-06T12:55:31;101980.09;;;24.61;35.27
60974;BME280;46846;51.528;5.076;2022-07-06T12:57:57;101974.31;;;24.77;35.23
60974;BME280;46846;51.528;5.076;2022-07-06T13:00:24;101975.28;;;24.64;35.73